createdAt,value
2018-01-19T00:00:33.265Z,963.44
2018-01-19T00:01:33.253Z,963.44
2018-01-19T00:02:33.233Z,963.50
2018-01-19T00:03:33.220Z,963.57
2018-01-19T00:04:33.205Z,963.65
2018-01-19T00:05:33.190Z,963.61
2018-01-19T00:06:33.181Z,963.57
2018-01-19T00:07:33.163Z,963.64
2018-01-19T00:08:33.158Z,963.66
2018-01-19T00:09:33.140Z,963.70
2018-01-19T00:10:33.134Z,963.71
2018-01-19T00:11:33.108Z,963.74
2018-01-19T00:12:33.099Z,963.74
2018-01-19T00:13:33.081Z,963.83
2018-01-19T00:14:33.067Z,963.91
2018-01-19T00:15:33.059Z,963.92
2018-01-19T00:16:33.039Z,963.98
2018-01-19T00:17:33.025Z,964.00
2018-01-19T00:18:33.017Z,963.99
2018-01-19T00:19:32.998Z,963.99
2018-01-19T00:20:32.983Z,964.04
2018-01-19T00:21:32.970Z,964.08
2018-01-19T00:22:32.958Z,964.09
2018-01-19T00:23:32.942Z,964.15
2018-01-19T00:24:32.936Z,964.14
2018-01-19T00:25:32.921Z,964.22
2018-01-19T00:26:32.905Z,964.31
2018-01-19T00:27:32.890Z,964.24
2018-01-19T00:28:32.873Z,964.23
2018-01-19T00:29:32.862Z,964.42
2018-01-19T00:30:32.847Z,964.40
2018-01-19T00:31:32.841Z,964.35
2018-01-19T00:32:32.818Z,964.44
2018-01-19T00:33:32.802Z,964.46
2018-01-19T00:34:32.790Z,964.54
2018-01-19T00:35:32.774Z,964.39
2018-01-19T00:36:32.767Z,964.27
2018-01-19T00:37:32.748Z,964.38
2018-01-19T00:38:32.733Z,964.38
2018-01-19T00:39:32.726Z,964.43
2018-01-19T00:40:32.704Z,964.49
2018-01-19T00:41:32.690Z,964.44
2018-01-19T00:42:32.675Z,964.36
2018-01-19T00:43:32.662Z,964.43
2018-01-19T00:44:32.654Z,964.34
2018-01-19T00:45:32.636Z,964.37
2018-01-19T00:46:32.626Z,964.47
2018-01-19T00:47:32.614Z,964.40
2018-01-19T00:48:32.591Z,964.40
2018-01-19T00:49:32.584Z,964.30
2018-01-19T00:50:32.564Z,964.24
2018-01-19T00:51:32.550Z,964.21
2018-01-19T00:52:32.533Z,964.26
2018-01-19T00:53:32.522Z,964.28
2018-01-19T00:54:32.506Z,964.40
2018-01-19T00:55:32.491Z,964.32
2018-01-19T00:56:32.479Z,964.31
2018-01-19T00:57:32.463Z,964.28
2018-01-19T00:58:32.450Z,964.30
2018-01-19T00:59:32.438Z,964.37
2018-01-19T01:00:32.424Z,964.39
2018-01-19T01:01:32.417Z,964.31
2018-01-19T01:02:32.393Z,964.35
2018-01-19T01:03:32.378Z,964.37
2018-01-19T01:04:32.373Z,964.34
2018-01-19T01:05:32.357Z,964.38
2018-01-19T01:06:32.337Z,964.27
2018-01-19T01:07:32.322Z,964.36
2018-01-19T01:08:32.309Z,964.36
2018-01-19T01:09:32.295Z,964.47
2018-01-19T01:10:32.279Z,964.48
2018-01-19T01:11:32.264Z,964.46
2018-01-19T01:12:32.250Z,964.37
2018-01-19T01:13:32.237Z,964.55
2018-01-19T01:14:32.221Z,964.56
2018-01-19T01:15:32.207Z,964.56
2018-01-19T01:16:32.199Z,964.48
2018-01-19T01:17:32.181Z,964.51
2018-01-19T01:18:32.175Z,964.58
2018-01-19T01:19:32.154Z,964.70
2018-01-19T01:20:32.136Z,964.72
2018-01-19T01:21:32.121Z,964.81
2018-01-19T01:22:32.107Z,964.69
2018-01-19T01:23:32.093Z,964.70
2018-01-19T01:24:32.082Z,964.48
2018-01-19T01:25:32.063Z,964.45
2018-01-19T01:26:32.047Z,964.61
2018-01-19T01:27:32.036Z,964.61
2018-01-19T01:28:32.021Z,964.55
2018-01-19T01:29:32.007Z,964.64
2018-01-19T01:30:31.991Z,964.70
2018-01-19T01:31:31.976Z,964.73
2018-01-19T01:32:31.961Z,964.68
2018-01-19T01:33:31.946Z,964.71
2018-01-19T01:34:31.932Z,964.70
2018-01-19T01:35:31.917Z,964.74
2018-01-19T01:36:31.910Z,964.77
2018-01-19T01:37:31.889Z,964.73
2018-01-19T01:38:31.874Z,964.72
2018-01-19T01:39:31.859Z,964.63
2018-01-19T01:40:31.847Z,964.74
2018-01-19T01:41:31.832Z,964.64
2018-01-19T01:42:31.819Z,964.62
2018-01-19T01:43:31.808Z,964.59
2018-01-19T01:44:31.795Z,964.59
2018-01-19T01:45:31.773Z,964.69
2018-01-19T01:46:31.765Z,964.64
2018-01-19T01:47:31.744Z,964.81
2018-01-19T01:48:31.734Z,964.75
2018-01-19T01:49:31.723Z,964.79
2018-01-19T01:50:31.714Z,964.81
2018-01-19T01:51:31.685Z,964.75
2018-01-19T01:52:31.672Z,964.79
2018-01-19T01:53:31.657Z,964.79
2018-01-19T01:54:31.644Z,964.80
2018-01-19T01:55:31.633Z,964.75
2018-01-19T01:56:31.619Z,964.78
2018-01-19T01:57:31.600Z,964.72
2018-01-19T01:58:31.585Z,964.77
2018-01-19T01:59:31.571Z,964.76
2018-01-19T02:00:31.558Z,964.72
2018-01-19T02:01:31.542Z,964.70
2018-01-19T02:02:31.529Z,964.74
2018-01-19T02:03:31.512Z,964.71
2018-01-19T02:04:31.497Z,964.70
2018-01-19T02:05:31.487Z,964.67
2018-01-19T02:06:31.469Z,964.66
2018-01-19T02:07:31.452Z,964.53
2018-01-19T02:08:31.445Z,964.55
2018-01-19T02:09:31.424Z,964.52
2018-01-19T02:10:31.410Z,964.53
2018-01-19T02:11:31.396Z,964.52
2018-01-19T02:12:31.384Z,964.49
2018-01-19T02:13:31.370Z,964.41
2018-01-19T02:14:31.359Z,964.42
2018-01-19T02:15:31.344Z,964.38
2018-01-19T02:16:31.325Z,964.37
2018-01-19T02:17:31.320Z,964.34
2018-01-19T02:18:31.297Z,964.36
2018-01-19T02:19:31.286Z,964.30
2018-01-19T02:20:31.276Z,964.38
2018-01-19T02:21:31.256Z,964.40
2018-01-19T02:22:31.243Z,964.40
2018-01-19T02:23:31.225Z,964.50
2018-01-19T02:24:31.214Z,964.38
2018-01-19T02:25:31.195Z,964.47
2018-01-19T02:26:31.181Z,964.37
2018-01-19T02:27:31.173Z,964.40
2018-01-19T02:28:31.164Z,964.33
2018-01-19T02:29:31.139Z,964.24
2018-01-19T02:30:31.124Z,964.16
2018-01-19T02:31:31.109Z,964.10
2018-01-19T02:32:31.094Z,964.14
2018-01-19T02:33:31.082Z,964.16
2018-01-19T02:34:31.067Z,964.14
2018-01-19T02:35:31.053Z,964.11
2018-01-19T02:36:31.038Z,964.16
2018-01-19T02:37:31.031Z,964.14
2018-01-19T02:38:31.009Z,964.15
2018-01-19T02:39:30.995Z,964.13
2018-01-19T02:40:30.989Z,964.10
2018-01-19T02:41:30.970Z,964.10
2018-01-19T02:42:30.952Z,964.03
2018-01-19T02:43:30.941Z,964.07
2018-01-19T02:44:30.925Z,964.14
2018-01-19T02:45:30.910Z,964.14
2018-01-19T02:46:30.897Z,964.13
2018-01-19T02:47:30.880Z,964.15
2018-01-19T02:48:30.872Z,964.12
2018-01-19T02:49:30.860Z,964.17
2018-01-19T02:50:30.840Z,964.19
2018-01-19T02:51:30.826Z,964.19
2018-01-19T02:52:30.810Z,964.21
2018-01-19T02:53:30.796Z,964.10
2018-01-19T02:54:30.783Z,964.07
2018-01-19T02:55:30.767Z,964.07
2018-01-19T02:56:30.756Z,964.10
2018-01-19T02:57:30.742Z,964.10
2018-01-19T02:58:30.728Z,964.15
2018-01-19T02:59:30.717Z,964.12
2018-01-19T03:00:30.699Z,964.14
2018-01-19T03:01:30.683Z,964.05
2018-01-19T03:02:30.669Z,964.11
2018-01-19T03:03:30.655Z,964.18
2018-01-19T03:04:30.641Z,964.19
2018-01-19T03:05:30.626Z,964.24
2018-01-19T03:06:30.614Z,964.22
2018-01-19T03:07:30.597Z,964.31
2018-01-19T03:08:30.582Z,964.28
2018-01-19T03:09:30.579Z,964.23
2018-01-19T03:10:30.561Z,964.17
2018-01-19T03:11:30.540Z,964.28
2018-01-19T03:12:30.525Z,964.25
2018-01-19T03:13:30.513Z,964.30
2018-01-19T03:14:30.499Z,964.27
2018-01-19T03:15:30.489Z,964.31
2018-01-19T03:16:30.471Z,964.28
2018-01-19T03:17:30.462Z,964.31
2018-01-19T03:18:30.443Z,964.21
2018-01-19T03:19:30.427Z,964.17
2018-01-19T03:20:30.416Z,964.31
2018-01-19T03:21:30.397Z,964.25
2018-01-19T03:22:30.385Z,964.28
2018-01-19T03:23:30.377Z,964.26
2018-01-19T03:24:30.359Z,964.21
2018-01-19T03:25:30.343Z,964.22
2018-01-19T03:26:30.332Z,964.20
2018-01-19T03:27:30.312Z,964.19
2018-01-19T03:28:30.300Z,964.18
2018-01-19T03:29:30.287Z,964.06
2018-01-19T03:30:30.271Z,964.27
2018-01-19T03:31:30.257Z,964.35
2018-01-19T03:32:30.290Z,964.40
2018-01-19T03:33:30.238Z,964.40
2018-01-19T03:34:30.213Z,964.53
2018-01-19T03:35:30.200Z,964.47
2018-01-19T03:36:30.187Z,964.54
2018-01-19T03:37:30.178Z,964.51
2018-01-19T03:38:30.155Z,964.53
2018-01-19T03:39:30.140Z,964.40
2018-01-19T03:40:30.127Z,964.43
2018-01-19T03:41:30.113Z,964.45
2018-01-19T03:42:30.100Z,964.40
2018-01-19T03:43:30.085Z,964.47
2018-01-19T03:44:30.072Z,964.43
2018-01-19T03:45:30.055Z,964.55
2018-01-19T03:46:30.041Z,964.54
2018-01-19T03:47:30.056Z,964.53
2018-01-19T03:48:30.018Z,964.59
2018-01-19T03:49:29.996Z,964.54
2018-01-19T03:50:29.982Z,964.64
2018-01-19T03:51:29.967Z,964.62
2018-01-19T03:52:29.960Z,964.70
2018-01-19T03:53:29.949Z,964.77
2018-01-19T03:54:29.924Z,964.76
2018-01-19T03:55:29.910Z,964.66
2018-01-19T03:56:29.896Z,964.72
2018-01-19T03:57:29.887Z,964.71
2018-01-19T03:58:29.874Z,964.64
2018-01-19T03:59:29.851Z,964.53
2018-01-19T04:00:29.835Z,964.61
2018-01-19T04:01:29.828Z,964.62
2018-01-19T04:02:29.815Z,964.61
2018-01-19T04:03:29.801Z,964.62
2018-01-19T04:04:29.783Z,964.64
2018-01-19T04:05:29.770Z,964.68
2018-01-19T04:06:29.756Z,964.67
2018-01-19T04:07:29.738Z,964.67
2018-01-19T04:08:29.720Z,964.80
2018-01-19T04:09:29.707Z,964.87
2018-01-19T04:10:29.692Z,964.98
2018-01-19T04:11:29.677Z,964.98
2018-01-19T04:12:29.664Z,964.96
2018-01-19T04:13:29.648Z,964.92
2018-01-19T04:14:29.636Z,964.93
2018-01-19T04:15:29.625Z,964.97
2018-01-19T04:16:29.604Z,965.06
2018-01-19T04:17:29.591Z,964.95
2018-01-19T04:18:29.583Z,965.08
2018-01-19T04:19:29.567Z,965.07
2018-01-19T04:20:29.555Z,965.11
2018-01-19T04:21:29.535Z,965.10
2018-01-19T04:22:29.524Z,965.21
2018-01-19T04:23:29.502Z,965.18
2018-01-19T04:24:29.494Z,965.23
2018-01-19T04:25:29.478Z,965.33
2018-01-19T04:26:29.467Z,965.33
2018-01-19T04:27:29.450Z,965.42
2018-01-19T04:28:29.428Z,965.44
2018-01-19T04:29:29.421Z,965.35
2018-01-19T04:30:29.403Z,965.44
2018-01-19T04:31:29.386Z,965.45
2018-01-19T04:32:29.371Z,965.41
2018-01-19T04:33:29.354Z,965.35
2018-01-19T04:34:29.346Z,965.35
2018-01-19T04:35:29.326Z,965.36
2018-01-19T04:36:29.310Z,965.32
2018-01-19T04:37:29.302Z,965.43
2018-01-19T04:38:29.286Z,965.37
2018-01-19T04:39:29.269Z,965.44
2018-01-19T04:40:29.252Z,965.48
2018-01-19T04:41:29.236Z,965.50
2018-01-19T04:42:29.224Z,965.55
2018-01-19T04:43:29.214Z,965.54
2018-01-19T04:44:29.194Z,965.55
2018-01-19T04:45:29.183Z,965.60
2018-01-19T04:46:29.162Z,965.70
2018-01-19T04:47:29.146Z,965.55
2018-01-19T04:48:29.135Z,965.68
2018-01-19T04:49:29.118Z,965.71
2018-01-19T04:50:29.102Z,965.70
2018-01-19T04:51:29.086Z,965.71
2018-01-19T04:52:29.073Z,965.77
2018-01-19T04:53:29.062Z,965.82
2018-01-19T04:54:29.041Z,965.79
2018-01-19T04:55:29.026Z,965.74
2018-01-19T04:56:29.011Z,965.86
2018-01-19T04:57:28.996Z,965.81
2018-01-19T04:58:28.981Z,965.84
2018-01-19T04:59:28.965Z,965.87
2018-01-19T05:00:28.951Z,965.91
2018-01-19T05:01:28.935Z,965.94
2018-01-19T05:02:28.921Z,965.92
2018-01-19T05:03:28.909Z,965.94
2018-01-19T05:04:28.889Z,966.00
2018-01-19T05:05:28.876Z,966.05
2018-01-19T05:06:28.867Z,965.95
2018-01-19T05:07:28.847Z,965.95
2018-01-19T05:08:28.836Z,965.94
2018-01-19T05:09:28.813Z,965.93
2018-01-19T05:10:28.802Z,965.97
2018-01-19T05:11:28.784Z,966.03
2018-01-19T05:12:28.771Z,966.01
2018-01-19T05:13:28.762Z,966.05
2018-01-19T05:14:28.743Z,966.04
2018-01-19T05:15:28.725Z,966.10
2018-01-19T05:16:28.708Z,966.13
2018-01-19T05:17:28.692Z,966.14
2018-01-19T05:18:28.683Z,966.18
2018-01-19T05:19:28.661Z,966.20
2018-01-19T05:20:28.651Z,966.25
2018-01-19T05:21:28.640Z,966.25
2018-01-19T05:22:28.618Z,966.25
2018-01-19T05:23:28.605Z,966.23
2018-01-19T05:24:28.587Z,966.24
2018-01-19T05:25:28.578Z,966.24
2018-01-19T05:26:28.559Z,966.30
2018-01-19T05:27:28.541Z,966.29
2018-01-19T05:28:28.526Z,966.34
2018-01-19T05:29:28.512Z,966.28
2018-01-19T05:30:28.497Z,966.29
2018-01-19T05:31:28.485Z,966.26
2018-01-19T05:32:28.466Z,966.36
2018-01-19T05:33:28.458Z,966.32
2018-01-19T05:34:28.439Z,966.31
2018-01-19T05:35:28.429Z,966.34
2018-01-19T05:36:28.407Z,966.34
2018-01-19T05:37:28.393Z,966.33
2018-01-19T05:38:28.377Z,966.34
2018-01-19T05:39:28.362Z,966.32
2018-01-19T05:40:28.350Z,966.33
2018-01-19T05:41:28.340Z,966.38
2018-01-19T05:42:28.315Z,966.43
2018-01-19T05:43:28.301Z,966.45
2018-01-19T05:44:28.327Z,966.53
2018-01-19T05:45:28.270Z,966.53
2018-01-19T05:46:28.258Z,966.54
2018-01-19T05:47:28.250Z,966.57
2018-01-19T05:48:28.226Z,966.58
2018-01-19T05:49:28.210Z,966.63
2018-01-19T05:50:28.195Z,966.65
2018-01-19T05:51:28.188Z,966.69
2018-01-19T05:52:28.178Z,966.82
2018-01-19T05:53:28.159Z,966.84
2018-01-19T05:54:28.145Z,966.82
2018-01-19T05:55:28.132Z,966.79
2018-01-19T05:56:28.105Z,966.74
2018-01-19T05:57:28.097Z,966.78
2018-01-19T05:58:28.082Z,966.77
2018-01-19T05:59:28.065Z,966.80
2018-01-19T06:00:28.063Z,966.79
2018-01-19T06:01:28.046Z,966.79
2018-01-19T06:02:28.015Z,966.80
2018-01-19T06:03:27.998Z,966.90
2018-01-19T06:04:27.982Z,967.01
2018-01-19T06:05:27.977Z,967.05
2018-01-19T06:06:27.956Z,967.07
2018-01-19T06:07:27.940Z,967.07
2018-01-19T06:08:27.927Z,967.05
2018-01-19T06:09:27.916Z,967.05
2018-01-19T06:10:27.893Z,967.07
2018-01-19T06:11:27.876Z,967.08
2018-01-19T06:12:27.863Z,967.15
2018-01-19T06:13:27.845Z,967.07
2018-01-19T06:14:27.832Z,967.16
2018-01-19T06:15:27.814Z,967.21
2018-01-19T06:16:27.799Z,967.19
2018-01-19T06:17:27.787Z,967.27
2018-01-19T06:18:27.770Z,967.26
2018-01-19T06:19:27.756Z,967.22
2018-01-19T06:20:27.748Z,967.34
2018-01-19T06:21:27.727Z,967.31
2018-01-19T06:22:27.708Z,967.40
2018-01-19T06:23:27.693Z,967.31
2018-01-19T06:24:27.684Z,967.39
2018-01-19T06:25:27.661Z,967.51
2018-01-19T06:26:27.653Z,967.56
2018-01-19T06:27:27.638Z,967.58
2018-01-19T06:28:27.617Z,967.54
2018-01-19T06:29:27.602Z,967.59
2018-01-19T06:30:27.592Z,967.70
2018-01-19T06:31:27.572Z,967.70
2018-01-19T06:32:27.561Z,967.62
2018-01-19T06:33:27.542Z,967.81
2018-01-19T06:34:27.528Z,967.83
2018-01-19T06:35:27.512Z,967.80
2018-01-19T06:36:27.494Z,967.92
2018-01-19T06:37:27.481Z,967.91
2018-01-19T06:38:27.467Z,967.91
2018-01-19T06:39:27.451Z,967.91
2018-01-19T06:40:27.435Z,968.00
2018-01-19T06:41:27.419Z,967.97
2018-01-19T06:42:27.409Z,967.96
2018-01-19T06:43:27.388Z,967.95
2018-01-19T06:44:27.379Z,967.96
2018-01-19T06:45:27.355Z,968.01
2018-01-19T06:46:27.340Z,967.91
2018-01-19T06:47:27.327Z,967.88
2018-01-19T06:48:27.316Z,967.90
2018-01-19T06:49:27.299Z,967.89
2018-01-19T06:50:27.283Z,967.89
2018-01-19T06:51:27.263Z,967.89
2018-01-19T06:52:27.247Z,967.98
2018-01-19T06:53:27.232Z,967.97
2018-01-19T06:54:27.218Z,967.94
2018-01-19T06:55:27.202Z,967.96
2018-01-19T06:56:27.184Z,967.95
2018-01-19T06:57:27.172Z,968.02
2018-01-19T06:58:27.164Z,968.09
2018-01-19T06:59:27.146Z,968.07
2018-01-19T07:00:27.123Z,968.09
2018-01-19T07:01:27.157Z,968.14
2018-01-19T07:02:27.090Z,968.15
2018-01-19T07:03:27.077Z,968.15
2018-01-19T07:04:27.059Z,968.16
2018-01-19T07:05:27.052Z,968.22
2018-01-19T07:06:27.040Z,968.15
2018-01-19T07:07:27.017Z,968.22
2018-01-19T07:08:26.999Z,968.26
2018-01-19T07:09:26.988Z,968.21
2018-01-19T07:10:26.971Z,968.18
2018-01-19T07:11:26.953Z,968.22
2018-01-19T07:12:26.969Z,968.32
2018-01-19T07:13:26.921Z,968.31
2018-01-19T07:14:26.910Z,968.38
2018-01-19T07:15:26.893Z,968.32
2018-01-19T07:16:26.870Z,968.35
2018-01-19T07:17:26.854Z,968.40
2018-01-19T07:18:26.839Z,968.45
2018-01-19T07:19:26.823Z,968.43
2018-01-19T07:20:26.805Z,968.41
2018-01-19T07:21:26.789Z,968.39
2018-01-19T07:22:26.775Z,968.39
2018-01-19T07:23:26.765Z,968.41
2018-01-19T07:24:26.743Z,968.42
2018-01-19T07:25:26.736Z,968.47
2018-01-19T07:26:26.715Z,968.40
2018-01-19T07:27:26.695Z,968.43
2018-01-19T07:28:26.686Z,968.40
2018-01-19T07:29:26.664Z,968.45
2018-01-19T07:30:26.654Z,968.47
2018-01-19T07:31:26.637Z,968.48
2018-01-19T07:32:26.618Z,968.39
2018-01-19T07:33:26.601Z,968.44
2018-01-19T07:34:26.590Z,968.46
2018-01-19T07:35:26.570Z,968.47
2018-01-19T07:36:26.552Z,968.51
2018-01-19T07:37:26.541Z,968.48
2018-01-19T07:38:26.522Z,968.47
2018-01-19T07:39:26.504Z,968.45
2018-01-19T07:40:26.488Z,968.49
2018-01-19T07:41:26.475Z,968.50
2018-01-19T07:42:26.456Z,968.45
2018-01-19T07:43:26.442Z,968.47
2018-01-19T07:44:26.430Z,968.50
2018-01-19T07:45:26.412Z,968.41
2018-01-19T07:46:26.396Z,968.42
2018-01-19T07:47:26.377Z,968.41
2018-01-19T07:48:26.368Z,968.48
2018-01-19T07:49:26.346Z,968.48
2018-01-19T07:50:26.328Z,968.47
2018-01-19T07:51:26.312Z,968.44
2018-01-19T07:52:26.296Z,968.45
2018-01-19T07:53:26.281Z,968.44
2018-01-19T07:54:26.276Z,968.48
2018-01-19T07:55:26.248Z,968.58
2018-01-19T07:56:26.241Z,968.53
2018-01-19T07:57:26.220Z,968.56
2018-01-19T07:58:26.205Z,968.58
2018-01-19T07:59:26.188Z,968.62
2018-01-19T08:00:26.176Z,968.59
2018-01-19T08:01:26.157Z,968.67
2018-01-19T08:02:26.138Z,968.69
2018-01-19T08:03:26.122Z,968.68
2018-01-19T08:04:26.111Z,968.73
2018-01-19T08:05:26.094Z,968.75
2018-01-19T08:06:26.073Z,968.83
2018-01-19T08:07:26.061Z,968.86
2018-01-19T08:08:26.047Z,968.88
2018-01-19T08:09:26.035Z,968.91
2018-01-19T08:10:26.013Z,968.88
2018-01-19T08:11:25.998Z,968.91
2018-01-19T08:12:25.980Z,968.92
2018-01-19T08:13:25.962Z,968.93
2018-01-19T08:14:25.947Z,968.90
2018-01-19T08:15:25.931Z,968.90
2018-01-19T08:16:25.914Z,968.93
2018-01-19T08:17:25.900Z,968.95
2018-01-19T08:18:25.880Z,968.97
2018-01-19T08:19:25.867Z,968.94
2018-01-19T08:20:25.855Z,968.96
2018-01-19T08:21:25.834Z,968.95
2018-01-19T08:22:25.818Z,968.93
2018-01-19T08:23:25.802Z,968.89
2018-01-19T08:24:25.793Z,968.84
2018-01-19T08:25:25.778Z,968.91
2018-01-19T08:26:25.757Z,968.89
2018-01-19T08:27:25.740Z,968.90
2018-01-19T08:28:25.729Z,968.95
2018-01-19T08:29:25.711Z,968.89
2018-01-19T08:30:25.692Z,968.88
2018-01-19T08:31:25.680Z,968.93
2018-01-19T08:32:25.661Z,968.94
2018-01-19T08:33:25.644Z,968.91
2018-01-19T08:34:25.628Z,968.91
2018-01-19T08:35:25.615Z,968.95
2018-01-19T08:36:25.601Z,968.96
2018-01-19T08:37:25.589Z,968.97
2018-01-19T08:38:25.565Z,968.96
2018-01-19T08:39:25.551Z,968.95
2018-01-19T08:40:25.538Z,968.96
2018-01-19T08:41:25.524Z,968.94
2018-01-19T08:42:25.510Z,968.97
2018-01-19T08:43:25.493Z,968.98
2018-01-19T08:44:25.479Z,968.94
2018-01-19T08:45:25.456Z,968.97
2018-01-19T08:46:25.446Z,968.99
2018-01-19T08:47:25.430Z,968.96
2018-01-19T08:48:25.414Z,968.96
2018-01-19T08:49:25.393Z,969.02
2018-01-19T08:50:25.379Z,969.07
2018-01-19T08:51:25.362Z,968.98
2018-01-19T08:52:25.349Z,969.04
2018-01-19T08:53:25.340Z,969.00
2018-01-19T08:54:25.319Z,969.00
2018-01-19T08:55:25.300Z,968.99
2018-01-19T08:56:25.287Z,969.07
2018-01-19T08:57:25.271Z,969.08
2018-01-19T08:58:25.253Z,969.07
2018-01-19T08:59:25.239Z,969.13
2018-01-19T09:00:25.229Z,969.16
2018-01-19T09:01:25.213Z,969.14
2018-01-19T09:02:25.196Z,969.14
2018-01-19T09:03:25.178Z,969.15
2018-01-19T09:04:25.163Z,969.12
2018-01-19T09:05:25.147Z,969.11
2018-01-19T09:06:25.140Z,969.16
2018-01-19T09:07:25.117Z,969.23
2018-01-19T09:08:25.100Z,969.16
2018-01-19T09:09:25.092Z,969.19
2018-01-19T09:10:25.080Z,969.22
2018-01-19T09:11:25.061Z,969.24
2018-01-19T09:12:25.041Z,969.21
2018-01-19T09:13:25.025Z,969.25
2018-01-19T09:14:25.012Z,969.29
2018-01-19T09:15:24.995Z,969.27
2018-01-19T09:16:24.981Z,969.28
2018-01-19T09:17:24.965Z,969.28
2018-01-19T09:18:24.951Z,969.31
2018-01-19T09:19:24.943Z,969.34
2018-01-19T09:20:24.919Z,969.36
2018-01-19T09:21:24.908Z,969.41
2018-01-19T09:22:24.897Z,969.34
2018-01-19T09:23:24.877Z,969.35
2018-01-19T09:24:24.870Z,969.37
2018-01-19T09:25:24.849Z,969.39
2018-01-19T09:26:24.833Z,969.39
2018-01-19T09:27:24.818Z,969.37
2018-01-19T09:28:24.805Z,969.42
2018-01-19T09:29:24.800Z,969.42
2018-01-19T09:30:24.776Z,969.43
2018-01-19T09:31:24.764Z,969.41
2018-01-19T09:32:24.748Z,969.45
2018-01-19T09:33:24.735Z,969.48
2018-01-19T09:34:24.729Z,969.46
2018-01-19T09:35:24.711Z,969.47
2018-01-19T09:36:24.692Z,969.50
2018-01-19T09:37:24.678Z,969.64
2018-01-19T09:38:24.665Z,969.81
2018-01-19T09:39:24.650Z,969.85
2018-01-19T09:40:24.638Z,969.83
2018-01-19T09:41:24.626Z,969.91
2018-01-19T09:42:24.616Z,969.92
2018-01-19T09:43:24.596Z,969.90
2018-01-19T09:44:24.583Z,969.92
2018-01-19T09:45:24.569Z,969.93
2018-01-19T09:46:24.556Z,969.96
2018-01-19T09:47:24.536Z,970.02
2018-01-19T09:48:24.526Z,970.03
2018-01-19T09:49:24.513Z,970.04
2018-01-19T09:50:24.491Z,970.06
2018-01-19T09:51:24.479Z,970.03
2018-01-19T09:52:24.462Z,970.05
2018-01-19T09:53:24.446Z,970.06
2018-01-19T09:54:24.432Z,970.06
2018-01-19T09:55:24.416Z,970.04
2018-01-19T09:56:24.403Z,970.05
2018-01-19T09:57:24.386Z,970.03
2018-01-19T09:58:24.375Z,970.05
2018-01-19T09:59:24.365Z,970.06
2018-01-19T10:00:24.342Z,970.08
2018-01-19T10:01:24.327Z,970.12
2018-01-19T10:02:24.313Z,970.09
2018-01-19T10:03:24.297Z,970.07
2018-01-19T10:04:24.283Z,970.10
2018-01-19T10:05:24.267Z,970.08
2018-01-19T10:06:24.253Z,970.11
2018-01-19T10:07:24.243Z,970.07
2018-01-19T10:08:24.224Z,970.09
2018-01-19T10:09:24.209Z,970.07
2018-01-19T10:10:24.193Z,970.08
2018-01-19T10:11:24.180Z,970.00
2018-01-19T10:12:24.165Z,970.04
2018-01-19T10:13:24.152Z,970.03
2018-01-19T10:14:24.137Z,970.03
2018-01-19T10:15:24.122Z,970.08
2018-01-19T10:16:24.116Z,970.03
2018-01-19T10:17:24.094Z,970.03
2018-01-19T10:18:24.078Z,970.02
2018-01-19T10:19:24.062Z,970.09
2018-01-19T10:20:24.053Z,970.10
2018-01-19T10:21:24.033Z,970.05
2018-01-19T10:22:24.022Z,970.06
2018-01-19T10:23:24.007Z,970.04
2018-01-19T10:24:23.990Z,970.10
2018-01-19T10:25:23.976Z,970.06
2018-01-19T10:26:23.961Z,970.08
2018-01-19T10:27:23.952Z,970.11
2018-01-19T10:28:23.934Z,970.11
2018-01-19T10:29:23.926Z,970.12
2018-01-19T10:30:23.904Z,970.12
2018-01-19T10:31:23.890Z,970.11
2018-01-19T10:32:23.880Z,970.08
2018-01-19T10:33:23.867Z,970.15
2018-01-19T10:34:23.846Z,970.05
2018-01-19T10:35:23.834Z,970.12
2018-01-19T10:36:23.814Z,970.12
2018-01-19T10:37:23.801Z,970.17
2018-01-19T10:38:23.788Z,970.18
2018-01-19T10:39:23.772Z,970.21
2018-01-19T10:40:23.762Z,970.18
2018-01-19T10:41:23.744Z,970.18
2018-01-19T10:42:23.727Z,970.19
2018-01-19T10:43:23.712Z,970.14
2018-01-19T10:44:23.699Z,970.09
2018-01-19T10:45:23.683Z,970.08
2018-01-19T10:46:23.673Z,970.07
2018-01-19T10:47:23.661Z,970.09
2018-01-19T10:48:23.647Z,970.13
2018-01-19T10:49:23.630Z,970.10
2018-01-19T10:50:23.611Z,970.07
2018-01-19T10:51:23.599Z,970.11
2018-01-19T10:52:23.591Z,970.07
2018-01-19T10:53:23.568Z,970.11
2018-01-19T10:54:23.550Z,970.06
2018-01-19T10:55:23.536Z,970.03
2018-01-19T10:56:23.523Z,970.03
2018-01-19T10:57:23.559Z,969.98
2018-01-19T10:58:23.494Z,970.05
2018-01-19T10:59:23.476Z,970.06
2018-01-19T11:00:23.468Z,970.00
2018-01-19T11:01:23.461Z,970.00
2018-01-19T11:02:23.433Z,969.98
2018-01-19T11:03:23.419Z,969.99
2018-01-19T11:04:23.404Z,969.96
2018-01-19T11:05:23.390Z,969.97
2018-01-19T11:06:23.383Z,969.97
2018-01-19T11:07:23.360Z,969.90
2018-01-19T11:08:23.352Z,969.96
2018-01-19T11:09:23.333Z,969.79
2018-01-19T11:10:23.318Z,969.85
2018-01-19T11:11:23.303Z,969.80
2018-01-19T11:12:23.295Z,969.78
2018-01-19T11:13:23.274Z,969.77
2018-01-19T11:14:23.266Z,969.75
2018-01-19T11:15:23.246Z,969.71
2018-01-19T11:16:23.233Z,969.70
2018-01-19T11:17:23.223Z,969.67
2018-01-19T11:18:23.207Z,969.69
2018-01-19T11:19:23.187Z,969.66
2018-01-19T11:20:23.175Z,969.67
2018-01-19T11:21:23.158Z,969.61
2018-01-19T11:22:23.149Z,969.63
2018-01-19T11:23:23.130Z,969.65
2018-01-19T11:24:23.116Z,969.63
2018-01-19T11:25:23.100Z,969.67
2018-01-19T11:26:23.089Z,969.67
2018-01-19T11:27:23.073Z,969.64
2018-01-19T11:28:23.066Z,969.63
2018-01-19T11:29:23.046Z,969.66
2018-01-19T11:30:23.033Z,969.65
2018-01-19T11:31:23.022Z,969.61
2018-01-19T11:32:23.003Z,969.60
2018-01-19T11:33:22.989Z,969.55
2018-01-19T11:34:22.981Z,969.57
2018-01-19T11:35:22.965Z,969.58
2018-01-19T11:36:22.945Z,969.60
2018-01-19T11:37:22.931Z,969.55
2018-01-19T11:38:22.926Z,969.56
2018-01-19T11:39:22.910Z,969.56
2018-01-19T11:40:22.890Z,969.48
2018-01-19T11:41:22.877Z,969.47
2018-01-19T11:42:22.862Z,969.42
2018-01-19T11:43:22.849Z,969.47
2018-01-19T11:44:22.840Z,969.40
2018-01-19T11:45:22.826Z,969.44
2018-01-19T11:46:22.807Z,969.46
2018-01-19T11:47:22.797Z,969.43
2018-01-19T11:48:22.830Z,969.44
2018-01-19T11:49:22.770Z,969.42
2018-01-19T11:50:22.758Z,969.36
2018-01-19T11:51:22.741Z,969.35
2018-01-19T11:52:22.730Z,969.32
2018-01-19T11:53:22.709Z,969.26
2018-01-19T11:54:22.695Z,969.24
2018-01-19T11:55:22.681Z,969.24
2018-01-19T11:56:22.666Z,969.24
2018-01-19T11:57:22.663Z,969.25
2018-01-19T11:58:22.642Z,969.23
2018-01-19T11:59:22.626Z,969.21
2018-01-19T12:00:22.613Z,969.20
2018-01-19T12:01:22.599Z,969.23
2018-01-19T12:02:22.592Z,969.14
2018-01-19T12:03:22.574Z,969.12
2018-01-19T12:04:22.558Z,969.15
2018-01-19T12:05:22.559Z,969.13
2018-01-19T12:06:22.536Z,969.17
2018-01-19T12:07:22.518Z,969.18
2018-01-19T12:08:22.514Z,969.15
2018-01-19T12:09:22.491Z,969.12
2018-01-19T12:10:22.483Z,969.11
2018-01-19T12:11:22.469Z,969.15
2018-01-19T12:12:22.459Z,969.09
2018-01-19T12:13:22.440Z,969.05
2018-01-19T12:14:22.424Z,969.00
2018-01-19T12:15:22.413Z,969.02
2018-01-19T12:16:22.397Z,968.96
2018-01-19T12:17:22.385Z,968.94
2018-01-19T12:18:22.371Z,968.93
2018-01-19T12:19:22.359Z,968.88
2018-01-19T12:20:22.350Z,968.86
2018-01-19T12:21:22.333Z,968.88
2018-01-19T12:22:22.324Z,968.80
2018-01-19T12:23:22.352Z,968.77
2018-01-19T12:24:22.292Z,968.75
2018-01-19T12:25:22.286Z,968.77
2018-01-19T12:26:22.266Z,968.81
2018-01-19T12:27:22.253Z,968.76
2018-01-19T12:28:22.240Z,968.76